Aniak, AK

5:41 AM AKDT on April 26, 2015 (GMT -0800)
Tatalina | | Change Station
CLOSE
Current Station
Airport
Location: Tatalina,
Elevation: 965 ft
Nearby Weather Stations

Elev 965 ft 62.89 °N, 155.98 °W | Updated 46 minutes ago

Clear
Clear
42 °F
Feels Like 42 °F
N
2
Wind Variable Wind from NNW

Today
High -- | Low -- °F
--% Chance of Precip.
Yesterday
High -- | Low -- °F
Precip. -- in
6:42 AM 10:31 PM
First Quarter, 55% visible
Pressure 29.80 in
Visibility 10.0 miles
Clouds Clear
Dew Point 23 °F
Humidity 47%
Rainfall 0.00 in
Snow Depth Not available.
UV 0 out of 12
Pollen Not available.
Air Quality Not available.
Flu Activity Sporadic
METAR PATL 261255Z AUTO 33002KT 10SM CLR 06/M05 A2979 RMK AO2 SLP091 T00551050 $

More Conditions Fewer Conditions

Pressure 29.80 in
Visibility 10.0 miles
Clouds Clear
Dew Point 23 °F
Humidity 47%
Rainfall 0.00 in
Snow Depth Not available.
UV 0 out of 12
Pollen Not available.
Air Quality Not available.
Flu Activity Sporadic
METAR PATL 261255Z AUTO 33002KT 10SM CLR 06/M05 A2979 RMK AO2 SLP091 T00551050 $

More Conditions Fewer Conditions

10-Day Weather Forecast

Almanac

Astronomy

Apr. 26, 2015 Rise Set
Actual Time
Civil Twilight
Nautical Twilight
Astronomical Twilight
Moon
Length of Visible Light
Length of Day
Tomorrow will be .
, % of the Moon is Illuminated

Today's Extremes

State Highs State Lows

Community

WunderPhotos

Upload Photos

1,816,998 photos uploaded!

WunderBlogs® & News

Nearby

Air Quality

  Air Quality AQ Index Pollutant
Not available.

Snow Depth

Station Depth Elevation

Earthquake Activity

City Distance Mag. Time & Date
Minimum magnitude displayed is 2.5.

Coastal Water Temperatures

Place Temperature

Stations

Nearby Weather Stations

Station Location Temp. Windchill Dew Point Humidity Wind Precip. Elev Updated Type